Witney Roadrunners Cotswold Classic
Skip Navigation Links
Results
Team Results
Leaderboard
Past Results
Race Stats
Smartphone Results
Race Website
29 Sep 2018
HyperLink
Click your name for detailed results
Page 1 of 5 (230 items)
[1]2345
Pos
Bib No
Fav
Share
Print
Name
Gun Time
Chip Time *
Category
Cat Pos
County Cat.
County Cat. Pos.
Gender
Gen Pos
Club
Age Grade
Pace
6173Fergus CAMPBELL1:00:13.11:00:11.6V501V501Male6HEADINGTON RR 81.7810.0 m/hr
7193Graham HOPE1:00:45.11:00:44.4MSen3MSen1Male7KIDLINGTON RUNNING CLUB 74.22 9.9 m/hr
8169Anthony BENNETT1:00:50.41:00:48.7V404  Male8TONBRIDGE AC 76.35 9.9 m/hr
929Sam DIX1:00:59.41:00:58.1MSen4  Male9BRACKLEY AND DISTRICT RC 72.14 9.8 m/hr
10206Christopher LUMLEY1:01:08.61:01:06.0MSen5  Male10ALCHESTER RUNNING CLUB 73.33 9.8 m/hr
11226Robert STOREY1:01:19.31:01:17.2V502  Male11EYNSHAM ROAD RUNNERS 82.43 9.8 m/hr
1236Mark FORD1:02:28.61:02:27.5MSen6  Male12WARE JOGGERS 70.43 9.6 m/hr
13245Chris COLBECK1:02:36.31:02:31.9V405  Male13WITNEY ROAD RUNNERS 77.32 9.6 m/hr
14267Jack GOODWIN1:02:45.71:02:44.7MSen7  Male14KIDLINGTON RUNNING CLUB 70.70 9.6 m/hr
1516David CANTWELL1:02:46.91:02:45.5V503V502Male15WOODSTOCK HARRIERS AC 79.11 9.6 m/hr
16266Andrew STICKLEY1:02:49.61:02:46.4V406  Male16ALCHESTER RUNNING CLUB 73.34 9.6 m/hr
17232Jeffrey TRYBUS1:03:00.11:02:58.6MSen8  Male17CHERWELL RUNNERS & JOGGERS 70.10 9.5 m/hr
18183Dave FERRIER1:03:06.01:03:04.2V407  Male18EYNSHAM ROAD RUNNERS 73.62 9.5 m/hr
19100Andy MCKENDRICK 1:03:07.01:03:04.4MSen9  Male19NEWBURY AC 69.97 9.5 m/hr
20117Benedict POLLARD1:03:37.71:03:35.6V408V403Male20EYNSHAM ROAD RUNNERS 74.20 9.4 m/hr
21268Tom BAKER1:03:48.51:03:46.3MSen10  Male21EYNSHAM ROAD RUNNERS 68.96 9.4 m/hr
22186Jonathan HARRISON1:03:52.41:03:49.4MSen11  Male22  68.88 9.4 m/hr
23256Ian THOMAS1:04:14.91:04:12.9V504  Male23CHERWELL RUNNERS & JOGGERS 79.36 9.3 m/hr
2424Terry COOPER1:04:34.81:04:31.8MSen12MSen2Male24WHITE HORSE HARRIERS 68.81 9.3 m/hr
2569Emily HUTCHINSON1:05:12.41:05:10.9FSen1  Female1  75.68 9.2 m/hr
26190Marcus HILL1:05:19.41:05:16.1V409  Male25HEADINGTON RR 71.69 9.2 m/hr
27112Shaun OGORMAN1:05:38.81:05:35.7V505V503Male26ALCHESTER RUNNING CLUB 75.01 9.1 m/hr
28115Pearce PHILLIPS 1:06:25.11:06:16.0V506  Male27  74.78 9.0 m/hr
29184Carl GADEN 1:06:29.11:06:26.2V507  Male28HEADINGTON RR 76.69 9.0 m/hr
30106Darren NICHOL1:06:43.21:06:39.6V4010  Male29CHERWELL RUNNERS & JOGGERS 71.95 9.0 m/hr
31103Clare MOWFORTH1:06:47.41:06:43.4V351V351Female2WHITE HORSE HARRIERS 74.63 9.0 m/hr
3286Simon LEECH1:06:48.71:06:44.3V508V504Male30WHITE HORSE HARRIERS 75.65 9.0 m/hr
34236Ed WHITE1:07:02.71:06:52.0MSen14  Male32OXFORD CITY AC 65.66 8.9 m/hr
3365Liam HOSIER1:06:59.11:06:55.7MSen13MSen3Male31KIDLINGTON RUNNING CLUB 65.69 9.0 m/hr
35149Ben WATSON1:07:13.71:07:06.5V4011V404Male33ABINGDON AC 69.10 8.9 m/hr
36181Martin DORRILL1:07:19.21:07:17.3V509  Male34KENILWORTH RUNNERS 73.78 8.9 m/hr
3712Graham BRIDGES1:07:28.51:07:23.0V5010V505Male35EYNSHAM ROAD RUNNERS 74.25 8.9 m/hr
38261Mark JONES1:07:37.61:07:34.0V5011  Male36HEADINGTON RR 78.91 8.9 m/hr
39255Gus WILKIE1:07:57.91:07:50.9MSen15  Male37  64.74 8.8 m/hr
40128Paul SHARP1:08:47.51:08:41.6MSen16  Male38  64.20 8.7 m/hr
41233Samantha USHER1:08:47.91:08:44.6V451V451Female3ALCHESTER RUNNING CLUB 77.96 8.7 m/hr
43223Richard SCAIFE1:08:56.91:08:46.0V4013V405Male40KIDLINGTON RUNNING CLUB 68.48 8.7 m/hr
42241Royston WILLIAMS1:08:56.81:08:48.4V4012  Male39HOOK NORTON HARRIERS 69.62 8.7 m/hr
44162Kate ALLRED1:09:07.81:09:02.8V452V452Female4EYNSHAM ROAD RUNNERS 80.23 8.7 m/hr
45196James HUMPHREYS1:09:38.91:09:33.6MSen17  Male41  64.06 8.6 m/hr
46204Fabrice LEVASSOR 1:09:40.41:09:37.8MSen18  Male42  63.26 8.6 m/hr
4741Emily GEORGIADES1:09:47.91:09:43.1FSen2FSen1Female5HEADINGTON RR 70.70 8.6 m/hr
4843Charlotte GOODALL1:09:56.21:09:49.2V352  Female6  73.00 8.6 m/hr
49138David SMYTH1:10:00.21:09:53.5MSen19MSen4Male43ABINGDON AC 63.09 8.6 m/hr
50119Charles PUGH1:10:04.61:10:00.7V4014  Male44HANDY CROSS RUNNERS 69.67 8.6 m/hr
51254Katy YOUNG1:10:16.51:10:14.9FSen3  Female7  70.40 8.5 m/hr
52242Tina WISE1:10:27.71:10:19.0V353V352Female8DIDCOT RUNNERS 74.05 8.5 m/hr
53225Anthony STONEHOUSE1:10:37.91:10:28.2V4015  Male45HOOK NORTON HARRIERS 69.12 8.5 m/hr
54218John PREECE1:10:58.71:10:56.1MSen20  Male46  61.99 8.5 m/hr
5588Mark LEWY1:11:03.01:10:56.5V5012V506Male47ABINGDON AC 73.07 8.4 m/hr
Page 1 of 5 (230 items)
[1]2345
fb

HyperLink Copyright (c) G Vincent, 2018